sensor_id;sensor_type;location;lat;lon;timestamp;temperature;humidity
74420;DHT22;62855;50.718;-2.460;2023-02-22T16:25:21;46.58;60.00
74420;DHT22;62855;50.718;-2.460;2023-02-22T16:27:16;46.58;60.00
74420;DHT22;62855;50.718;-2.460;2023-02-22T16:29:07;46.58;60.00
74420;DHT22;62855;50.718;-2.460;2023-02-22T16:31:08;46.40;60.00
74420;DHT22;62855;50.718;-2.460;2023-02-22T16:34:07;46.22;60.00
74420;DHT22;62855;50.718;-2.460;2023-02-22T16:34:07;46.22;60.00
74420;DHT22;62855;50.718;-2.460;2023-02-22T16:38:07;46.04;60.00
74420;DHT22;62855;50.718;-2.460;2023-02-22T16:46:06;45.68;61.00
74420;DHT22;62855;50.718;-2.460;2023-02-22T16:57:09;44.96;62.00
74420;DHT22;62855;50.718;-2.460;2023-02-22T17:00:10;44.78;62.00
74420;DHT22;62855;50.718;-2.460;2023-02-22T17:03:06;44.78;-1.00
74420;DHT22;62855;50.718;-2.460;2023-02-22T17:06:06;44.60;63.00
74420;DHT22;62855;50.718;-2.460;2023-02-22T17:07:06;44.60;63.00
74420;DHT22;62855;50.718;-2.460;2023-02-22T17:08:05;30.20;-1.00
74420;DHT22;62855;50.718;-2.460;2023-02-22T17:24:08;43.88;68.00
74420;DHT22;62855;50.718;-2.460;2023-02-22T17:27:06;43.70;68.00
74420;DHT22;62855;50.718;-2.460;2023-02-22T17:30:07;43.70;68.00
74420;DHT22;62855;50.718;-2.460;2023-02-22T17:31:06;43.52;68.00
74420;DHT22;62855;50.718;-2.460;2023-02-22T17:34:06;43.52;68.00
74420;DHT22;62855;50.718;-2.460;2023-02-22T17:37:05;43.34;68.00
74420;DHT22;62855;50.718;-2.460;2023-02-22T17:40:06;43.16;69.00
74420;DHT22;62855;50.718;-2.460;2023-02-22T17:43:06;42.98;69.00
74420;DHT22;62855;50.718;-2.460;2023-02-22T17:46:06;42.98;69.00
74420;DHT22;62855;50.718;-2.460;2023-02-22T17:49:11;42.80;70.00
74420;DHT22;62855;50.718;-2.460;2023-02-22T17:52:05;42.62;70.00
74420;DHT22;62855;50.718;-2.460;2023-02-22T17:55:07;42.44;70.00
74420;DHT22;62855;50.718;-2.460;2023-02-22T17:58:08;42.26;70.00
74420;DHT22;62855;50.718;-2.460;2023-02-22T17:59:06;42.26;70.00
74420;DHT22;62855;50.718;-2.460;2023-02-22T18:01:16;42.26;70.00
74420;DHT22;62855;50.718;-2.460;2023-02-22T18:04:05;42.26;70.00
74420;DHT22;62855;50.718;-2.460;2023-02-22T18:05:07;42.08;70.00
74420;DHT22;62855;50.718;-2.460;2023-02-22T18:08:06;42.08;70.00
74420;DHT22;62855;50.718;-2.460;2023-02-22T18:11:06;41.90;70.00
74420;DHT22;62855;50.718;-2.460;2023-02-22T18:14:06;41.72;70.00
74420;DHT22;62855;50.718;-2.460;2023-02-22T18:17:06;41.72;71.00
74420;DHT22;62855;50.718;-2.460;2023-02-22T18:20:06;41.72;71.00
74420;DHT22;62855;50.718;-2.460;2023-02-22T18:23:07;41.54;71.00
74420;DHT22;62855;50.718;-2.460;2023-02-22T18:26:06;41.54;71.00
74420;DHT22;62855;50.718;-2.460;2023-02-22T18:29:06;41.36;71.00
74420;DHT22;62855;50.718;-2.460;2023-02-22T18:32:05;41.36;71.00
74420;DHT22;62855;50.718;-2.460;2023-02-22T18:35:06;41.18;71.00
74420;DHT22;62855;50.718;-2.460;2023-02-22T18:38:06;41.18;72.00
74420;DHT22;62855;50.718;-2.460;2023-02-22T18:41:06;41.00;72.00
74420;DHT22;62855;50.718;-2.460;2023-02-22T18:44:05;41.00;72.00
74420;DHT22;62855;50.718;-2.460;2023-02-22T18:47:05;40.82;72.00
74420;DHT22;62855;50.718;-2.460;2023-02-22T18:50:06;40.82;72.00
74420;DHT22;62855;50.718;-2.460;2023-02-22T18:53:11;40.82;72.00
74420;DHT22;62855;50.718;-2.460;2023-02-22T18:56:07;40.64;72.00
74420;DHT22;62855;50.718;-2.460;2023-02-22T18:59:06;40.64;73.00
74420;DHT22;62855;50.718;-2.460;2023-02-22T19:02:08;40.64;73.00
74420;DHT22;62855;50.718;-2.460;2023-02-22T19:05:06;40.64;73.00
74420;DHT22;62855;50.718;-2.460;2023-02-22T19:08:06;40.64;73.00
74420;DHT22;62855;50.718;-2.460;2023-02-22T19:11:07;40.64;73.00
74420;DHT22;62855;50.718;-2.460;2023-02-22T19:14:05;40.64;74.00
74420;DHT22;62855;50.718;-2.460;2023-02-22T19:17:06;40.64;74.00
74420;DHT22;62855;50.718;-2.460;2023-02-22T19:20:06;40.46;74.00
74420;DHT22;62855;50.718;-2.460;2023-02-22T19:23:06;40.46;74.00
74420;DHT22;62855;50.718;-2.460;2023-02-22T19:26:05;40.64;74.00
74420;DHT22;62855;50.718;-2.460;2023-02-22T19:29:06;40.64;74.00
74420;DHT22;62855;50.718;-2.460;2023-02-22T19:32:06;40.64;74.00
74420;DHT22;62855;50.718;-2.460;2023-02-22T19:35:06;40.64;74.00
74420;DHT22;62855;50.718;-2.460;2023-02-22T19:38:06;40.64;74.00
74420;DHT22;62855;50.718;-2.460;2023-02-22T19:41:07;40.64;74.00
74420;DHT22;62855;50.718;-2.460;2023-02-22T19:44:06;40.46;74.00
74420;DHT22;62855;50.718;-2.460;2023-02-22T19:47:06;40.46;74.00
74420;DHT22;62855;50.718;-2.460;2023-02-22T19:50:11;40.46;74.00
74420;DHT22;62855;50.718;-2.460;2023-02-22T19:53:05;40.46;74.00
74420;DHT22;62855;50.718;-2.460;2023-02-22T19:56:07;40.46;75.00
74420;DHT22;62855;50.718;-2.460;2023-02-22T19:59:07;40.46;75.00
74420;DHT22;62855;50.718;-2.460;2023-02-22T20:02:09;40.46;75.00
74420;DHT22;62855;50.718;-2.460;2023-02-22T20:05:07;40.46;75.00
74420;DHT22;62855;50.718;-2.460;2023-02-22T20:08:06;40.46;75.00
74420;DHT22;62855;50.718;-2.460;2023-02-22T20:11:06;40.46;75.00
74420;DHT22;62855;50.718;-2.460;2023-02-22T20:14:05;40.46;75.00
74420;DHT22;62855;50.718;-2.460;2023-02-22T20:17:06;40.46;75.00
74420;DHT22;62855;50.718;-2.460;2023-02-22T20:20:07;40.64;76.00
74420;DHT22;62855;50.718;-2.460;2023-02-22T20:23:05;40.64;76.00
74420;DHT22;62855;50.718;-2.460;2023-02-22T20:26:13;40.64;76.00
74420;DHT22;62855;50.718;-2.460;2023-02-22T20:29:07;40.64;76.00
74420;DHT22;62855;50.718;-2.460;2023-02-22T20:32:09;40.64;76.00
74420;DHT22;62855;50.718;-2.460;2023-02-22T20:35:06;40.64;76.00
74420;DHT22;62855;50.718;-2.460;2023-02-22T20:38:06;40.64;76.00
74420;DHT22;62855;50.718;-2.460;2023-02-22T20:41:06;40.82;76.00
74420;DHT22;62855;50.718;-2.460;2023-02-22T20:44:06;40.82;76.00
74420;DHT22;62855;50.718;-2.460;2023-02-22T20:47:06;40.82;77.00
74420;DHT22;62855;50.718;-2.460;2023-02-22T20:50:06;40.82;77.00
74420;DHT22;62855;50.718;-2.460;2023-02-22T20:53:06;40.82;77.00
74420;DHT22;62855;50.718;-2.460;2023-02-22T20:56:06;40.82;77.00
74420;DHT22;62855;50.718;-2.460;2023-02-22T20:59:06;40.82;77.00
74420;DHT22;62855;50.718;-2.460;2023-02-22T21:02:05;40.82;77.00
74420;DHT22;62855;50.718;-2.460;2023-02-22T21:05:06;40.82;78.00
74420;DHT22;62855;50.718;-2.460;2023-02-22T21:08:06;40.82;78.00
74420;DHT22;62855;50.718;-2.460;2023-02-22T21:11:08;40.82;78.00
74420;DHT22;62855;50.718;-2.460;2023-02-22T21:14:06;40.82;78.00
74420;DHT22;62855;50.718;-2.460;2023-02-22T21:17:05;40.82;79.00
74420;DHT22;62855;50.718;-2.460;2023-02-22T21:20:06;40.64;79.00
74420;DHT22;62855;50.718;-2.460;2023-02-22T21:23:06;40.64;79.00
74420;DHT22;62855;50.718;-2.460;2023-02-22T21:26:11;40.64;79.00
74420;DHT22;62855;50.718;-2.460;2023-02-22T21:29:06;40.64;79.00
74420;DHT22;62855;50.718;-2.460;2023-02-22T21:32:05;40.64;79.00
74420;DHT22;62855;50.718;-2.460;2023-02-22T21:35:07;40.64;79.00
74420;DHT22;62855;50.718;-2.460;2023-02-22T21:38:05;40.64;79.00
74420;DHT22;62855;50.718;-2.460;2023-02-22T21:41:06;40.64;79.00
74420;DHT22;62855;50.718;-2.460;2023-02-22T21:44:06;40.46;79.00
74420;DHT22;62855;50.718;-2.460;2023-02-22T21:47:06;40.46;79.00
74420;DHT22;62855;50.718;-2.460;2023-02-22T21:50:07;40.46;79.00
74420;DHT22;62855;50.718;-2.460;2023-02-22T21:53:06;40.46;79.00
74420;DHT22;62855;50.718;-2.460;2023-02-22T21:56:06;40.46;79.00
74420;DHT22;62855;50.718;-2.460;2023-02-22T21:59:09;40.28;79.00
74420;DHT22;62855;50.718;-2.460;2023-02-22T22:02:08;40.28;79.00
74420;DHT22;62855;50.718;-2.460;2023-02-22T22:05:06;40.28;79.00
74420;DHT22;62855;50.718;-2.460;2023-02-22T22:08:06;40.10;79.00
74420;DHT22;62855;50.718;-2.460;2023-02-22T22:11:07;40.10;79.00
74420;DHT22;62855;50.718;-2.460;2023-02-22T22:14:05;39.92;79.00
74420;DHT22;62855;50.718;-2.460;2023-02-22T22:17:05;39.92;79.00
74420;DHT22;62855;50.718;-2.460;2023-02-22T22:20:08;39.92;79.00
74420;DHT22;62855;50.718;-2.460;2023-02-22T22:23:06;39.74;79.00
74420;DHT22;62855;50.718;-2.460;2023-02-22T22:26:07;39.74;79.00
74420;DHT22;62855;50.718;-2.460;2023-02-22T22:29:05;39.74;79.00
74420;DHT22;62855;50.718;-2.460;2023-02-22T22:32:06;39.74;79.00
74420;DHT22;62855;50.718;-2.460;2023-02-22T22:35:07;39.74;79.00
74420;DHT22;62855;50.718;-2.460;2023-02-22T22:38:06;39.74;79.00
74420;DHT22;62855;50.718;-2.460;2023-02-22T22:41:06;39.74;79.00
74420;DHT22;62855;50.718;-2.460;2023-02-22T22:44:06;39.74;80.00
74420;DHT22;62855;50.718;-2.460;2023-02-22T22:47:06;39.74;80.00
74420;DHT22;62855;50.718;-2.460;2023-02-22T22:50:06;39.74;80.00
74420;DHT22;62855;50.718;-2.460;2023-02-22T22:53:06;39.74;80.00
74420;DHT22;62855;50.718;-2.460;2023-02-22T22:56:08;39.74;80.00
74420;DHT22;62855;50.718;-2.460;2023-02-22T22:59:08;39.74;80.00
74420;DHT22;62855;50.718;-2.460;2023-02-22T23:02:05;39.74;80.00
74420;DHT22;62855;50.718;-2.460;2023-02-22T23:05:06;39.74;80.00
74420;DHT22;62855;50.718;-2.460;2023-02-22T23:08:05;39.92;80.00
74420;DHT22;62855;50.718;-2.460;2023-02-22T23:11:06;39.92;80.00
74420;DHT22;62855;50.718;-2.460;2023-02-22T23:14:06;39.92;80.00
74420;DHT22;62855;50.718;-2.460;2023-02-22T23:17:06;39.92;80.00
74420;DHT22;62855;50.718;-2.460;2023-02-22T23:20:06;39.92;80.00
74420;DHT22;62855;50.718;-2.460;2023-02-22T23:23:06;39.92;80.00
74420;DHT22;62855;50.718;-2.460;2023-02-22T23:26:07;39.92;80.00
74420;DHT22;62855;50.718;-2.460;2023-02-22T23:29:06;40.10;80.00
74420;DHT22;62855;50.718;-2.460;2023-02-22T23:32:06;40.10;80.00
74420;DHT22;62855;50.718;-2.460;2023-02-22T23:35:07;40.10;80.00
74420;DHT22;62855;50.718;-2.460;2023-02-22T23:38:06;40.10;80.00
74420;DHT22;62855;50.718;-2.460;2023-02-22T23:41:08;40.10;80.00
74420;DHT22;62855;50.718;-2.460;2023-02-22T23:44:06;40.10;80.00
74420;DHT22;62855;50.718;-2.460;2023-02-22T23:47:06;40.10;80.00
74420;DHT22;62855;50.718;-2.460;2023-02-22T23:50:07;40.10;80.00
74420;DHT22;62855;50.718;-2.460;2023-02-22T23:53:05;40.10;80.00
74420;DHT22;62855;50.718;-2.460;2023-02-22T23:56:06;40.10;80.00
74420;DHT22;62855;50.718;-2.460;2023-02-22T23:59:06;40.10;80.00
